sensor_id;sensor_type;location;lat;lon;timestamp;P1;durP1;ratioP1;P2;durP2;ratioP2
7255;SDS011;3669;49.200;9.242;2022-09-09T00:09:27;2.08;;;1.30;;
7255;SDS011;3669;49.200;9.242;2022-09-09T00:11:58;2.25;;;1.55;;
7255;SDS011;3669;49.200;9.242;2022-09-09T00:17:12;2.13;;;1.63;;
7255;SDS011;3669;49.200;9.242;2022-09-09T00:19:46;1.50;;;1.30;;
7255;SDS011;3669;49.200;9.242;2022-09-09T00:22:22;1.98;;;1.65;;
7255;SDS011;3669;49.200;9.242;2022-09-09T00:24:51;3.42;;;1.80;;
7255;SDS011;3669;49.200;9.242;2022-09-09T00:27:37;1.67;;;1.58;;
7255;SDS011;3669;49.200;9.242;2022-09-09T00:32:59;1.95;;;1.42;;
7255;SDS011;3669;49.200;9.242;2022-09-09T00:35:29;2.15;;;1.63;;
7255;SDS011;3669;49.200;9.242;2022-09-09T00:37:57;2.70;;;1.52;;
7255;SDS011;3669;49.200;9.242;2022-09-09T00:40:35;2.53;;;1.48;;
7255;SDS011;3669;49.200;9.242;2022-09-09T00:43:10;1.48;;;1.30;;
7255;SDS011;3669;49.200;9.242;2022-09-09T00:48:33;2.05;;;1.45;;
7255;SDS011;3669;49.200;9.242;2022-09-09T00:51:09;2.25;;;1.40;;
7255;SDS011;3669;49.200;9.242;2022-09-09T00:56:27;1.85;;;1.38;;
7255;SDS011;3669;49.200;9.242;2022-09-09T01:01:42;1.52;;;1.30;;
7255;SDS011;3669;49.200;9.242;2022-09-09T01:04:11;3.67;;;3.47;;
7255;SDS011;3669;49.200;9.242;2022-09-09T01:06:42;1.88;;;1.65;;
7255;SDS011;3669;49.200;9.242;2022-09-09T01:17:20;6.30;;;5.90;;
7255;SDS011;3669;49.200;9.242;2022-09-09T01:19:57;8.93;;;8.52;;
7255;SDS011;3669;49.200;9.242;2022-09-09T01:27:41;3.10;;;1.70;;
7255;SDS011;3669;49.200;9.242;2022-09-09T01:30:14;3.85;;;2.03;;
7255;SDS011;3669;49.200;9.242;2022-09-09T01:32:43;1.88;;;1.50;;
7255;SDS011;3669;49.200;9.242;2022-09-09T01:35:27;3.05;;;1.85;;
7255;SDS011;3669;49.200;9.242;2022-09-09T01:37:56;2.38;;;1.58;;
7255;SDS011;3669;49.200;9.242;2022-09-09T01:40:23;3.47;;;1.73;;
7255;SDS011;3669;49.200;9.242;2022-09-09T01:42:51;2.33;;;1.65;;
7255;SDS011;3669;49.200;9.242;2022-09-09T01:45:19;2.35;;;1.58;;
7255;SDS011;3669;49.200;9.242;2022-09-09T01:47:46;1.88;;;1.40;;
7255;SDS011;3669;49.200;9.242;2022-09-09T01:50:14;2.05;;;1.48;;
7255;SDS011;3669;49.200;9.242;2022-09-09T01:52:42;2.40;;;1.50;;
7255;SDS011;3669;49.200;9.242;2022-09-09T01:55:10;2.95;;;1.55;;
7255;SDS011;3669;49.200;9.242;2022-09-09T01:57:47;1.50;;;1.40;;
7255;SDS011;3669;49.200;9.242;2022-09-09T02:00:17;2.50;;;1.65;;
7255;SDS011;3669;49.200;9.242;2022-09-09T02:07:49;1.92;;;1.48;;
7255;SDS011;3669;49.200;9.242;2022-09-09T02:10:21;1.73;;;1.42;;
7255;SDS011;3669;49.200;9.242;2022-09-09T02:12:56;1.92;;;1.40;;
7255;SDS011;3669;49.200;9.242;2022-09-09T02:15:35;2.35;;;1.52;;
7255;SDS011;3669;49.200;9.242;2022-09-09T02:18:07;1.85;;;1.50;;
7255;SDS011;3669;49.200;9.242;2022-09-09T02:20:37;1.70;;;1.60;;
7255;SDS011;3669;49.200;9.242;2022-09-09T02:23:05;2.35;;;1.50;;
7255;SDS011;3669;49.200;9.242;2022-09-09T02:25:34;2.55;;;1.40;;
7255;SDS011;3669;49.200;9.242;2022-09-09T02:28:03;1.50;;;1.40;;
7255;SDS011;3669;49.200;9.242;2022-09-09T02:30:32;1.90;;;1.40;;
7255;SDS011;3669;49.200;9.242;2022-09-09T02:33:01;2.03;;;1.40;;
7255;SDS011;3669;49.200;9.242;2022-09-09T02:35:32;2.35;;;1.70;;
7255;SDS011;3669;49.200;9.242;2022-09-09T02:38:02;1.85;;;1.42;;
7255;SDS011;3669;49.200;9.242;2022-09-09T02:40:31;2.00;;;1.50;;
7255;SDS011;3669;49.200;9.242;2022-09-09T02:42:58;2.13;;;1.60;;
7255;SDS011;3669;49.200;9.242;2022-09-09T02:45:28;1.52;;;1.40;;
7255;SDS011;3669;49.200;9.242;2022-09-09T02:48:08;1.98;;;1.52;;
7255;SDS011;3669;49.200;9.242;2022-09-09T02:50:52;2.45;;;1.55;;
7255;SDS011;3669;49.200;9.242;2022-09-09T02:53:23;2.28;;;1.52;;
7255;SDS011;3669;49.200;9.242;2022-09-09T02:55:56;1.40;;;1.30;;
7255;SDS011;3669;49.200;9.242;2022-09-09T02:58:24;1.90;;;1.58;;
7255;SDS011;3669;49.200;9.242;2022-09-09T03:00:52;1.90;;;1.40;;
7255;SDS011;3669;49.200;9.242;2022-09-09T03:03:20;1.90;;;1.60;;
7255;SDS011;3669;49.200;9.242;2022-09-09T03:05:47;2.42;;;1.60;;
7255;SDS011;3669;49.200;9.242;2022-09-09T03:08:15;2.58;;;1.73;;
7255;SDS011;3669;49.200;9.242;2022-09-09T03:10:42;2.35;;;1.58;;
7255;SDS011;3669;49.200;9.242;2022-09-09T03:13:10;3.05;;;1.50;;
7255;SDS011;3669;49.200;9.242;2022-09-09T03:15:38;1.83;;;1.40;;
7255;SDS011;3669;49.200;9.242;2022-09-09T03:18:05;5.65;;;5.35;;
7255;SDS011;3669;49.200;9.242;2022-09-09T03:20:32;7.65;;;7.22;;
7255;SDS011;3669;49.200;9.242;2022-09-09T03:22:59;7.28;;;6.78;;
7255;SDS011;3669;49.200;9.242;2022-09-09T03:25:28;5.85;;;5.40;;
7255;SDS011;3669;49.200;9.242;2022-09-09T03:27:55;9.63;;;9.13;;
7255;SDS011;3669;49.200;9.242;2022-09-09T03:30:23;5.50;;;5.20;;
7255;SDS011;3669;49.200;9.242;2022-09-09T03:32:50;6.63;;;6.28;;
7255;SDS011;3669;49.200;9.242;2022-09-09T03:35:17;3.85;;;3.60;;
7255;SDS011;3669;49.200;9.242;2022-09-09T03:37:44;1.90;;;1.75;;
7255;SDS011;3669;49.200;9.242;2022-09-09T03:40:11;2.45;;;1.60;;
7255;SDS011;3669;49.200;9.242;2022-09-09T03:42:38;2.58;;;1.73;;
7255;SDS011;3669;49.200;9.242;2022-09-09T03:45:06;2.15;;;1.50;;
7255;SDS011;3669;49.200;9.242;2022-09-09T03:47:34;2.53;;;1.50;;
7255;SDS011;3669;49.200;9.242;2022-09-09T03:50:02;1.77;;;1.30;;
7255;SDS011;3669;49.200;9.242;2022-09-09T03:52:30;2.13;;;1.50;;
7255;SDS011;3669;49.200;9.242;2022-09-09T03:54:57;2.53;;;1.52;;
7255;SDS011;3669;49.200;9.242;2022-09-09T03:57:24;2.33;;;1.50;;
7255;SDS011;3669;49.200;9.242;2022-09-09T03:59:51;2.35;;;1.40;;
7255;SDS011;3669;49.200;9.242;2022-09-09T04:02:18;1.77;;;1.33;;
7255;SDS011;3669;49.200;9.242;2022-09-09T04:04:45;2.38;;;1.35;;
7255;SDS011;3669;49.200;9.242;2022-09-09T04:07:12;2.33;;;1.52;;
7255;SDS011;3669;49.200;9.242;2022-09-09T04:09:39;1.80;;;1.40;;
7255;SDS011;3669;49.200;9.242;2022-09-09T04:12:06;2.63;;;1.45;;
7255;SDS011;3669;49.200;9.242;2022-09-09T04:14:34;2.45;;;1.58;;
7255;SDS011;3669;49.200;9.242;2022-09-09T04:17:01;2.47;;;1.60;;
7255;SDS011;3669;49.200;9.242;2022-09-09T04:19:32;2.25;;;1.42;;
7255;SDS011;3669;49.200;9.242;2022-09-09T04:21:59;3.20;;;3.00;;
7255;SDS011;3669;49.200;9.242;2022-09-09T04:24:26;2.35;;;1.60;;
7255;SDS011;3669;49.200;9.242;2022-09-09T04:26:55;2.13;;;1.33;;
7255;SDS011;3669;49.200;9.242;2022-09-09T04:29:22;3.35;;;1.80;;
7255;SDS011;3669;49.200;9.242;2022-09-09T04:31:49;1.45;;;1.30;;
7255;SDS011;3669;49.200;9.242;2022-09-09T04:34:16;3.17;;;1.50;;
7255;SDS011;3669;49.200;9.242;2022-09-09T04:36:43;1.40;;;1.30;;
7255;SDS011;3669;49.200;9.242;2022-09-09T04:39:10;2.15;;;1.48;;
7255;SDS011;3669;49.200;9.242;2022-09-09T04:41:37;2.10;;;1.40;;
7255;SDS011;3669;49.200;9.242;2022-09-09T04:44:04;2.28;;;1.42;;
7255;SDS011;3669;49.200;9.242;2022-09-09T04:46:31;2.80;;;1.52;;
7255;SDS011;3669;49.200;9.242;2022-09-09T04:49:00;1.95;;;1.58;;
7255;SDS011;3669;49.200;9.242;2022-09-09T04:51:27;1.75;;;1.30;;
7255;SDS011;3669;49.200;9.242;2022-09-09T04:53:57;2.03;;;1.20;;
7255;SDS011;3669;49.200;9.242;2022-09-09T04:56:24;2.10;;;1.40;;
7255;SDS011;3669;49.200;9.242;2022-09-09T04:58:54;2.35;;;1.40;;
7255;SDS011;3669;49.200;9.242;2022-09-09T05:01:21;1.30;;;1.20;;
7255;SDS011;3669;49.200;9.242;2022-09-09T05:03:50;2.47;;;1.65;;
7255;SDS011;3669;49.200;9.242;2022-09-09T05:06:19;1.92;;;1.30;;
7255;SDS011;3669;49.200;9.242;2022-09-09T05:08:47;2.80;;;1.42;;
7255;SDS011;3669;49.200;9.242;2022-09-09T05:11:18;1.58;;;1.35;;
7255;SDS011;3669;49.200;9.242;2022-09-09T05:13:46;3.05;;;1.98;;
7255;SDS011;3669;49.200;9.242;2022-09-09T05:16:13;1.75;;;1.30;;
7255;SDS011;3669;49.200;9.242;2022-09-09T05:18:40;1.83;;;1.35;;
7255;SDS011;3669;49.200;9.242;2022-09-09T05:21:18;1.48;;;1.23;;
7255;SDS011;3669;49.200;9.242;2022-09-09T05:23:45;3.00;;;1.40;;
7255;SDS011;3669;49.200;9.242;2022-09-09T05:26:14;2.20;;;1.35;;
7255;SDS011;3669;49.200;9.242;2022-09-09T05:28:41;2.45;;;1.45;;
7255;SDS011;3669;49.200;9.242;2022-09-09T05:31:09;1.50;;;1.10;;
7255;SDS011;3669;49.200;9.242;2022-09-09T05:33:41;2.58;;;1.35;;
7255;SDS011;3669;49.200;9.242;2022-09-09T05:36:13;2.83;;;1.42;;
7255;SDS011;3669;49.200;9.242;2022-09-09T05:38:41;1.30;;;1.20;;
7255;SDS011;3669;49.200;9.242;2022-09-09T05:41:08;2.33;;;1.48;;
7255;SDS011;3669;49.200;9.242;2022-09-09T05:43:41;2.33;;;1.30;;
7255;SDS011;3669;49.200;9.242;2022-09-09T05:46:10;1.50;;;1.40;;
7255;SDS011;3669;49.200;9.242;2022-09-09T05:48:39;1.50;;;1.40;;
7255;SDS011;3669;49.200;9.242;2022-09-09T05:51:08;2.78;;;1.52;;
7255;SDS011;3669;49.200;9.242;2022-09-09T05:53:36;1.35;;;1.20;;
7255;SDS011;3669;49.200;9.242;2022-09-09T05:56:05;1.20;;;1.10;;
7255;SDS011;3669;49.200;9.242;2022-09-09T05:58:32;1.52;;;1.40;;
7255;SDS011;3669;49.200;9.242;2022-09-09T06:03:34;2.20;;;1.42;;
7255;SDS011;3669;49.200;9.242;2022-09-09T06:06:03;1.45;;;1.15;;
7255;SDS011;3669;49.200;9.242;2022-09-09T06:08:36;1.67;;;1.15;;
7255;SDS011;3669;49.200;9.242;2022-09-09T06:11:08;1.40;;;1.20;;
7255;SDS011;3669;49.200;9.242;2022-09-09T06:13:36;1.55;;;1.10;;
7255;SDS011;3669;49.200;9.242;2022-09-09T06:16:06;1.50;;;1.15;;
7255;SDS011;3669;49.200;9.242;2022-09-09T06:18:34;1.40;;;1.27;;
7255;SDS011;3669;49.200;9.242;2022-09-09T06:21:03;1.27;;;1.17;;
7255;SDS011;3669;49.200;9.242;2022-09-09T06:23:32;1.63;;;1.20;;
7255;SDS011;3669;49.200;9.242;2022-09-09T06:26:08;1.80;;;1.33;;
7255;SDS011;3669;49.200;9.242;2022-09-09T06:28:36;1.33;;;1.23;;
7255;SDS011;3669;49.200;9.242;2022-09-09T06:31:04;1.80;;;1.08;;
7255;SDS011;3669;49.200;9.242;2022-09-09T06:33:32;2.35;;;1.42;;
7255;SDS011;3669;49.200;9.242;2022-09-09T06:36:05;2.33;;;1.30;;
7255;SDS011;3669;49.200;9.242;2022-09-09T06:38:32;1.38;;;1.00;;
7255;SDS011;3669;49.200;9.242;2022-09-09T06:40:59;1.65;;;1.20;;
7255;SDS011;3669;49.200;9.242;2022-09-09T06:43:27;2.60;;;1.30;;
7255;SDS011;3669;49.200;9.242;2022-09-09T06:45:55;1.20;;;1.10;;
7255;SDS011;3669;49.200;9.242;2022-09-09T06:48:22;1.45;;;1.20;;
7255;SDS011;3669;49.200;9.242;2022-09-09T06:50:49;1.77;;;1.33;;
7255;SDS011;3669;49.200;9.242;2022-09-09T06:53:16;2.15;;;1.38;;
7255;SDS011;3669;49.200;9.242;2022-09-09T06:55:45;1.55;;;1.30;;
7255;SDS011;3669;49.200;9.242;2022-09-09T06:58:12;2.22;;;1.88;;
7255;SDS011;3669;49.200;9.242;2022-09-09T07:00:39;4.97;;;4.68;;
7255;SDS011;3669;49.200;9.242;2022-09-09T07:03:06;6.78;;;6.38;;
7255;SDS011;3669;49.200;9.242;2022-09-09T07:05:33;5.00;;;4.70;;
7255;SDS011;3669;49.200;9.242;2022-09-09T07:08:00;7.07;;;6.68;;
7255;SDS011;3669;49.200;9.242;2022-09-09T07:10:27;3.50;;;3.20;;
7255;SDS011;3669;49.200;9.242;2022-09-09T07:12:54;4.18;;;3.80;;
7255;SDS011;3669;49.200;9.242;2022-09-09T07:15:20;2.47;;;1.42;;
7255;SDS011;3669;49.200;9.242;2022-09-09T07:17:48;1.48;;;1.35;;
7255;SDS011;3669;49.200;9.242;2022-09-09T07:20:18;1.73;;;1.20;;
7255;SDS011;3669;49.200;9.242;2022-09-09T07:22:45;1.25;;;1.13;;
7255;SDS011;3669;49.200;9.242;2022-09-09T07:25:12;1.95;;;1.45;;
7255;SDS011;3669;49.200;9.242;2022-09-09T07:27:42;1.85;;;1.17;;
7255;SDS011;3669;49.200;9.242;2022-09-09T07:30:10;2.17;;;1.40;;
7255;SDS011;3669;49.200;9.242;2022-09-09T07:32:37;1.33;;;1.13;;
7255;SDS011;3669;49.200;9.242;2022-09-09T07:35:05;2.00;;;1.23;;
7255;SDS011;3669;49.200;9.242;2022-09-09T07:37:32;2.17;;;1.30;;
7255;SDS011;3669;49.200;9.242;2022-09-09T07:40:02;1.70;;;1.50;;
7255;SDS011;3669;49.200;9.242;2022-09-09T07:42:31;1.73;;;1.08;;
7255;SDS011;3669;49.200;9.242;2022-09-09T07:44:58;1.63;;;1.42;;
7255;SDS011;3669;49.200;9.242;2022-09-09T07:47:25;1.88;;;1.20;;
7255;SDS011;3669;49.200;9.242;2022-09-09T07:49:52;2.97;;;1.20;;
7255;SDS011;3669;49.200;9.242;2022-09-09T07:52:20;1.45;;;1.10;;
7255;SDS011;3669;49.200;9.242;2022-09-09T07:54:47;2.80;;;1.60;;
7255;SDS011;3669;49.200;9.242;2022-09-09T07:57:14;1.77;;;1.17;;
7255;SDS011;3669;49.200;9.242;2022-09-09T07:59:42;2.42;;;1.30;;
7255;SDS011;3669;49.200;9.242;2022-09-09T08:02:10;1.73;;;1.42;;
7255;SDS011;3669;49.200;9.242;2022-09-09T08:04:38;2.28;;;1.38;;
7255;SDS011;3669;49.200;9.242;2022-09-09T08:07:05;1.95;;;1.40;;
7255;SDS011;3669;49.200;9.242;2022-09-09T08:09:32;2.35;;;1.42;;
7255;SDS011;3669;49.200;9.242;2022-09-09T08:11:59;1.50;;;1.30;;
7255;SDS011;3669;49.200;9.242;2022-09-09T08:14:27;1.27;;;1.17;;
7255;SDS011;3669;49.200;9.242;2022-09-09T08:16:55;5.38;;;1.40;;
7255;SDS011;3669;49.200;9.242;2022-09-09T08:19:23;2.80;;;1.35;;
7255;SDS011;3669;49.200;9.242;2022-09-09T08:21:50;2.88;;;1.40;;
7255;SDS011;3669;49.200;9.242;2022-09-09T08:24:17;2.85;;;1.52;;
7255;SDS011;3669;49.200;9.242;2022-09-09T08:26:46;2.38;;;1.40;;
7255;SDS011;3669;49.200;9.242;2022-09-09T08:29:17;2.13;;;1.35;;
7255;SDS011;3669;49.200;9.242;2022-09-09T08:31:46;4.82;;;1.50;;
7255;SDS011;3669;49.200;9.242;2022-09-09T08:34:13;2.08;;;1.50;;
7255;SDS011;3669;49.200;9.242;2022-09-09T08:36:42;2.83;;;1.40;;
7255;SDS011;3669;49.200;9.242;2022-09-09T08:39:10;3.03;;;1.63;;
7255;SDS011;3669;49.200;9.242;2022-09-09T08:49:50;2.17;;;1.30;;
7255;SDS011;3669;49.200;9.242;2022-09-09T08:52:25;3.70;;;1.23;;
7255;SDS011;3669;49.200;9.242;2022-09-09T08:54:59;1.60;;;1.20;;
7255;SDS011;3669;49.200;9.242;2022-09-09T08:57:30;2.15;;;1.30;;
7255;SDS011;3669;49.200;9.242;2022-09-09T08:59:58;3.85;;;1.40;;
7255;SDS011;3669;49.200;9.242;2022-09-09T09:03:09;2.38;;;1.33;;
7255;SDS011;3669;49.200;9.242;2022-09-09T09:05:19;3.28;;;1.42;;
7255;SDS011;3669;49.200;9.242;2022-09-09T09:10:38;3.30;;;3.08;;
7255;SDS011;3669;49.200;9.242;2022-09-09T09:13:07;2.88;;;1.45;;
7255;SDS011;3669;49.200;9.242;2022-09-09T09:15:39;4.10;;;2.85;;
7255;SDS011;3669;49.200;9.242;2022-09-09T09:18:07;3.42;;;1.30;;
7255;SDS011;3669;49.200;9.242;2022-09-09T09:20:54;3.47;;;1.95;;
7255;SDS011;3669;49.200;9.242;2022-09-09T09:23:26;2.45;;;1.42;;
7255;SDS011;3669;49.200;9.242;2022-09-09T09:25:59;3.08;;;1.30;;
7255;SDS011;3669;49.200;9.242;2022-09-09T09:28:30;2.40;;;2.20;;
7255;SDS011;3669;49.200;9.242;2022-09-09T09:31:03;8.93;;;8.32;;
7255;SDS011;3669;49.200;9.242;2022-09-09T09:36:02;17.33;;;16.38;;
7255;SDS011;3669;49.200;9.242;2022-09-09T09:38:31;11.15;;;10.65;;
7255;SDS011;3669;49.200;9.242;2022-09-09T09:40:59;3.85;;;2.92;;
7255;SDS011;3669;49.200;9.242;2022-09-09T09:43:29;4.65;;;1.45;;
7255;SDS011;3669;49.200;9.242;2022-09-09T09:45:57;2.45;;;1.40;;
7255;SDS011;3669;49.200;9.242;2022-09-09T09:48:25;3.63;;;1.70;;
7255;SDS011;3669;49.200;9.242;2022-09-09T09:50:58;2.85;;;1.50;;
7255;SDS011;3669;49.200;9.242;2022-09-09T09:53:32;2.05;;;1.33;;
7255;SDS011;3669;49.200;9.242;2022-09-09T09:56:06;4.05;;;1.52;;
7255;SDS011;3669;49.200;9.242;2022-09-09T10:03:54;1.88;;;1.38;;
7255;SDS011;3669;49.200;9.242;2022-09-09T10:08:59;3.28;;;1.40;;
7255;SDS011;3669;49.200;9.242;2022-09-09T10:11:29;1.73;;;1.10;;
7255;SDS011;3669;49.200;9.242;2022-09-09T10:14:05;2.08;;;1.20;;
7255;SDS011;3669;49.200;9.242;2022-09-09T10:16:40;1.30;;;1.00;;
7255;SDS011;3669;49.200;9.242;2022-09-09T10:19:15;3.08;;;1.23;;
7255;SDS011;3669;49.200;9.242;2022-09-09T10:24:33;2.15;;;1.00;;
7255;SDS011;3669;49.200;9.242;2022-09-09T10:27:11;2.35;;;1.27;;
7255;SDS011;3669;49.200;9.242;2022-09-09T10:30:04;1.40;;;1.15;;
7255;SDS011;3669;49.200;9.242;2022-09-09T10:32:40;1.70;;;1.17;;
7255;SDS011;3669;49.200;9.242;2022-09-09T10:40:43;2.10;;;1.30;;
7255;SDS011;3669;49.200;9.242;2022-09-09T10:45:57;4.53;;;1.45;;
7255;SDS011;3669;49.200;9.242;2022-09-09T10:48:36;2.47;;;1.27;;
7255;SDS011;3669;49.200;9.242;2022-09-09T10:51:16;2.03;;;1.08;;
7255;SDS011;3669;49.200;9.242;2022-09-09T10:56:16;1.67;;;1.17;;
7255;SDS011;3669;49.200;9.242;2022-09-09T10:58:47;6.40;;;6.05;;
7255;SDS011;3669;49.200;9.242;2022-09-09T11:01:25;5.50;;;5.07;;
7255;SDS011;3669;49.200;9.242;2022-09-09T11:04:01;1.98;;;1.17;;
7255;SDS011;3669;49.200;9.242;2022-09-09T11:06:44;2.17;;;1.20;;
7255;SDS011;3669;49.200;9.242;2022-09-09T11:09:18;2.80;;;1.10;;
7255;SDS011;3669;49.200;9.242;2022-09-09T11:11:57;1.73;;;1.00;;
7255;SDS011;3669;49.200;9.242;2022-09-09T11:17:06;2.35;;;1.15;;
7255;SDS011;3669;49.200;9.242;2022-09-09T11:19:35;2.38;;;1.38;;
7255;SDS011;3669;49.200;9.242;2022-09-09T11:22:04;2.33;;;1.48;;
7255;SDS011;3669;49.200;9.242;2022-09-09T11:24:43;3.03;;;1.40;;
7255;SDS011;3669;49.200;9.242;2022-09-09T11:27:19;2.65;;;1.13;;
7255;SDS011;3669;49.200;9.242;2022-09-09T11:32:34;2.40;;;1.13;;
7255;SDS011;3669;49.200;9.242;2022-09-09T11:40:20;3.60;;;1.23;;
7255;SDS011;3669;49.200;9.242;2022-09-09T11:43:05;2.03;;;1.13;;
7255;SDS011;3669;49.200;9.242;2022-09-09T11:45:38;1.73;;;1.00;;
7255;SDS011;3669;49.200;9.242;2022-09-09T11:48:21;3.20;;;1.20;;
7255;SDS011;3669;49.200;9.242;2022-09-09T11:51:00;2.90;;;1.15;;
7255;SDS011;3669;49.200;9.242;2022-09-09T11:53:29;1.75;;;1.20;;
7255;SDS011;3669;49.200;9.242;2022-09-09T11:56:09;2.45;;;1.05;;
7255;SDS011;3669;49.200;9.242;2022-09-09T11:58:40;2.25;;;1.20;;
7255;SDS011;3669;49.200;9.242;2022-09-09T12:06:52;2.13;;;1.30;;
7255;SDS011;3669;49.200;9.242;2022-09-09T12:11:47;3.03;;;1.15;;
7255;SDS011;3669;49.200;9.242;2022-09-09T12:17:08;2.72;;;1.10;;
7255;SDS011;3669;49.200;9.242;2022-09-09T12:19:36;2.50;;;1.05;;
7255;SDS011;3669;49.200;9.242;2022-09-09T12:22:08;1.75;;;1.13;;
7255;SDS011;3669;49.200;9.242;2022-09-09T12:24:49;3.70;;;1.20;;
7255;SDS011;3669;49.200;9.242;2022-09-09T12:27:25;3.72;;;1.30;;
7255;SDS011;3669;49.200;9.242;2022-09-09T12:30:01;2.42;;;1.00;;
7255;SDS011;3669;49.200;9.242;2022-09-09T12:32:30;2.42;;;1.10;;
7255;SDS011;3669;49.200;9.242;2022-09-09T12:35:30;2.80;;;1.10;;
7255;SDS011;3669;49.200;9.242;2022-09-09T12:37:51;2.28;;;0.93;;
7255;SDS011;3669;49.200;9.242;2022-09-09T12:40:21;2.45;;;0.95;;
7255;SDS011;3669;49.200;9.242;2022-09-09T12:42:48;2.67;;;0.85;;
7255;SDS011;3669;49.200;9.242;2022-09-09T12:45:17;1.38;;;1.10;;
7255;SDS011;3669;49.200;9.242;2022-09-09T12:47:46;2.90;;;1.10;;
7255;SDS011;3669;49.200;9.242;2022-09-09T12:50:21;2.50;;;1.00;;
7255;SDS011;3669;49.200;9.242;2022-09-09T12:52:51;2.08;;;1.02;;
7255;SDS011;3669;49.200;9.242;2022-09-09T12:55:20;1.85;;;0.90;;
7255;SDS011;3669;49.200;9.242;2022-09-09T12:57:50;1.58;;;1.10;;
7255;SDS011;3669;49.200;9.242;2022-09-09T13:00:19;1.08;;;0.80;;
7255;SDS011;3669;49.200;9.242;2022-09-09T13:02:50;1.58;;;1.00;;
7255;SDS011;3669;49.200;9.242;2022-09-09T13:05:23;1.17;;;1.05;;
7255;SDS011;3669;49.200;9.242;2022-09-09T13:07:50;1.27;;;0.80;;
7255;SDS011;3669;49.200;9.242;2022-09-09T13:10:22;1.63;;;1.10;;
7255;SDS011;3669;49.200;9.242;2022-09-09T13:12:52;1.75;;;0.77;;
7255;SDS011;3669;49.200;9.242;2022-09-09T13:15:20;1.73;;;1.23;;
7255;SDS011;3669;49.200;9.242;2022-09-09T13:17:51;4.38;;;4.10;;
7255;SDS011;3669;49.200;9.242;2022-09-09T13:20:19;5.20;;;4.93;;
7255;SDS011;3669;49.200;9.242;2022-09-09T13:22:47;7.63;;;7.32;;
7255;SDS011;3669;49.200;9.242;2022-09-09T13:25:23;8.07;;;7.68;;
7255;SDS011;3669;49.200;9.242;2022-09-09T13:28:04;5.75;;;5.38;;
7255;SDS011;3669;49.200;9.242;2022-09-09T13:30:32;7.28;;;6.97;;
7255;SDS011;3669;49.200;9.242;2022-09-09T13:35:56;1.17;;;0.95;;
7255;SDS011;3669;49.200;9.242;2022-09-09T13:38:25;1.90;;;1.08;;
7255;SDS011;3669;49.200;9.242;2022-09-09T13:40:53;1.33;;;0.90;;
7255;SDS011;3669;49.200;9.242;2022-09-09T13:43:21;1.98;;;1.10;;
7255;SDS011;3669;49.200;9.242;2022-09-09T13:45:59;2.17;;;1.02;;
7255;SDS011;3669;49.200;9.242;2022-09-09T13:48:27;2.38;;;1.20;;
7255;SDS011;3669;49.200;9.242;2022-09-09T13:50:59;1.73;;;1.00;;
7255;SDS011;3669;49.200;9.242;2022-09-09T13:53:27;1.70;;;0.90;;
7255;SDS011;3669;49.200;9.242;2022-09-09T13:55:54;2.13;;;0.90;;
7255;SDS011;3669;49.200;9.242;2022-09-09T13:58:22;1.23;;;0.98;;
7255;SDS011;3669;49.200;9.242;2022-09-09T14:00:52;1.25;;;0.85;;
7255;SDS011;3669;49.200;9.242;2022-09-09T14:03:19;2.63;;;1.13;;
7255;SDS011;3669;49.200;9.242;2022-09-09T14:05:47;1.73;;;1.00;;
7255;SDS011;3669;49.200;9.242;2022-09-09T14:08:19;1.63;;;0.90;;
7255;SDS011;3669;49.200;9.242;2022-09-09T14:10:47;1.65;;;0.85;;
7255;SDS011;3669;49.200;9.242;2022-09-09T14:13:16;2.28;;;1.17;;
7255;SDS011;3669;49.200;9.242;2022-09-09T14:15:43;2.83;;;1.10;;
7255;SDS011;3669;49.200;9.242;2022-09-09T14:18:11;1.85;;;1.00;;
7255;SDS011;3669;49.200;9.242;2022-09-09T14:20:39;1.20;;;0.93;;
7255;SDS011;3669;49.200;9.242;2022-09-09T14:23:08;2.80;;;1.10;;
7255;SDS011;3669;49.200;9.242;2022-09-09T14:25:39;2.50;;;1.10;;
7255;SDS011;3669;49.200;9.242;2022-09-09T14:28:07;2.15;;;1.13;;
7255;SDS011;3669;49.200;9.242;2022-09-09T14:30:35;2.33;;;1.02;;
7255;SDS011;3669;49.200;9.242;2022-09-09T14:33:03;2.10;;;1.20;;
7255;SDS011;3669;49.200;9.242;2022-09-09T14:35:30;2.50;;;1.20;;
7255;SDS011;3669;49.200;9.242;2022-09-09T14:37:59;1.67;;;1.10;;
7255;SDS011;3669;49.200;9.242;2022-09-09T14:40:27;2.50;;;1.23;;
7255;SDS011;3669;49.200;9.242;2022-09-09T14:42:54;2.05;;;1.10;;
7255;SDS011;3669;49.200;9.242;2022-09-09T14:45:22;1.77;;;1.30;;
7255;SDS011;3669;49.200;9.242;2022-09-09T14:48:11;2.45;;;1.23;;
7255;SDS011;3669;49.200;9.242;2022-09-09T14:50:38;2.97;;;1.30;;
7255;SDS011;3669;49.200;9.242;2022-09-09T14:53:06;1.40;;;1.13;;
7255;SDS011;3669;49.200;9.242;2022-09-09T14:55:34;2.47;;;1.00;;
7255;SDS011;3669;49.200;9.242;2022-09-09T14:58:02;2.38;;;1.48;;
7255;SDS011;3669;49.200;9.242;2022-09-09T15:00:29;1.60;;;1.10;;
7255;SDS011;3669;49.200;9.242;2022-09-09T15:02:56;1.85;;;1.27;;
7255;SDS011;3669;49.200;9.242;2022-09-09T15:05:23;1.85;;;1.20;;
7255;SDS011;3669;49.200;9.242;2022-09-09T15:07:50;2.13;;;1.20;;
7255;SDS011;3669;49.200;9.242;2022-09-09T15:10:18;2.03;;;1.20;;
7255;SDS011;3669;49.200;9.242;2022-09-09T15:12:45;2.10;;;1.30;;
7255;SDS011;3669;49.200;9.242;2022-09-09T15:15:12;2.55;;;1.13;;
7255;SDS011;3669;49.200;9.242;2022-09-09T15:17:39;2.20;;;1.02;;
7255;SDS011;3669;49.200;9.242;2022-09-09T15:20:07;1.73;;;1.10;;
7255;SDS011;3669;49.200;9.242;2022-09-09T15:22:34;1.98;;;1.88;;
7255;SDS011;3669;49.200;9.242;2022-09-09T15:25:02;1.95;;;1.15;;
7255;SDS011;3669;49.200;9.242;2022-09-09T15:27:29;2.65;;;1.10;;
7255;SDS011;3669;49.200;9.242;2022-09-09T15:29:57;1.23;;;1.13;;
7255;SDS011;3669;49.200;9.242;2022-09-09T15:32:24;1.60;;;1.05;;
7255;SDS011;3669;49.200;9.242;2022-09-09T15:34:51;1.33;;;1.13;;
7255;SDS011;3669;49.200;9.242;2022-09-09T15:37:18;2.50;;;1.20;;
7255;SDS011;3669;49.200;9.242;2022-09-09T15:39:45;2.25;;;1.23;;
7255;SDS011;3669;49.200;9.242;2022-09-09T15:42:13;2.58;;;1.38;;
7255;SDS011;3669;49.200;9.242;2022-09-09T15:44:40;1.75;;;1.52;;
7255;SDS011;3669;49.200;9.242;2022-09-09T15:47:10;4.00;;;3.72;;
7255;SDS011;3669;49.200;9.242;2022-09-09T15:49:38;5.05;;;4.72;;
7255;SDS011;3669;49.200;9.242;2022-09-09T15:52:05;6.63;;;6.32;;
7255;SDS011;3669;49.200;9.242;2022-09-09T15:54:33;2.50;;;2.40;;
7255;SDS011;3669;49.200;9.242;2022-09-09T15:57:01;2.60;;;2.33;;
7255;SDS011;3669;49.200;9.242;2022-09-09T15:59:29;1.80;;;1.50;;
7255;SDS011;3669;49.200;9.242;2022-09-09T16:01:56;1.58;;;1.30;;
7255;SDS011;3669;49.200;9.242;2022-09-09T16:04:25;1.95;;;1.00;;
7255;SDS011;3669;49.200;9.242;2022-09-09T16:07:03;2.38;;;1.25;;
7255;SDS011;3669;49.200;9.242;2022-09-09T16:09:31;2.13;;;1.00;;
7255;SDS011;3669;49.200;9.242;2022-09-09T16:11:59;1.60;;;0.80;;
7255;SDS011;3669;49.200;9.242;2022-09-09T16:14:27;1.85;;;1.10;;
7255;SDS011;3669;49.200;9.242;2022-09-09T16:16:54;1.38;;;1.10;;
7255;SDS011;3669;49.200;9.242;2022-09-09T16:19:21;1.85;;;1.13;;
7255;SDS011;3669;49.200;9.242;2022-09-09T16:21:48;1.92;;;0.90;;
7255;SDS011;3669;49.200;9.242;2022-09-09T16:24:16;1.33;;;0.90;;
7255;SDS011;3669;49.200;9.242;2022-09-09T16:26:46;1.30;;;1.00;;
7255;SDS011;3669;49.200;9.242;2022-09-09T16:29:15;1.80;;;1.00;;
7255;SDS011;3669;49.200;9.242;2022-09-09T16:31:43;1.92;;;1.13;;
7255;SDS011;3669;49.200;9.242;2022-09-09T16:34:11;2.28;;;1.20;;
7255;SDS011;3669;49.200;9.242;2022-09-09T16:36:38;1.83;;;1.13;;
7255;SDS011;3669;49.200;9.242;2022-09-09T16:39:07;1.27;;;0.93;;
7255;SDS011;3669;49.200;9.242;2022-09-09T16:41:38;2.30;;;1.10;;
7255;SDS011;3669;49.200;9.242;2022-09-09T16:44:06;1.38;;;1.00;;
7255;SDS011;3669;49.200;9.242;2022-09-09T16:46:35;1.55;;;1.00;;
7255;SDS011;3669;49.200;9.242;2022-09-09T16:49:05;1.88;;;0.80;;
7255;SDS011;3669;49.200;9.242;2022-09-09T16:51:36;2.85;;;1.27;;
7255;SDS011;3669;49.200;9.242;2022-09-09T16:54:04;1.67;;;1.00;;
7255;SDS011;3669;49.200;9.242;2022-09-09T16:56:36;1.73;;;1.15;;
7255;SDS011;3669;49.200;9.242;2022-09-09T16:59:08;1.92;;;0.95;;
7255;SDS011;3669;49.200;9.242;2022-09-09T17:01:36;1.45;;;1.13;;
7255;SDS011;3669;49.200;9.242;2022-09-09T17:04:05;1.88;;;1.10;;
7255;SDS011;3669;49.200;9.242;2022-09-09T17:06:33;1.45;;;1.00;;
7255;SDS011;3669;49.200;9.242;2022-09-09T17:09:01;1.77;;;1.15;;
7255;SDS011;3669;49.200;9.242;2022-09-09T17:11:29;1.35;;;0.95;;
7255;SDS011;3669;49.200;9.242;2022-09-09T17:13:56;2.50;;;1.30;;